createdAt,value
2023-05-25T00:04:00.729Z,90.09
2023-05-25T00:14:03.360Z,88.94
2023-05-25T00:24:06.678Z,89.07
2023-05-25T00:34:09.373Z,89.39
2023-05-25T00:44:15.924Z,89.65
2023-05-25T00:54:19.673Z,89.60
2023-05-25T01:04:23.868Z,90.22
2023-05-25T01:14:27.675Z,91.49
2023-05-25T01:24:41.000Z,90.61
2023-05-25T01:34:44.396Z,90.29
2023-05-25T01:44:48.653Z,90.78
2023-05-25T01:55:01.083Z,92.66
2023-05-25T02:05:04.227Z,91.79
2023-05-25T02:15:07.219Z,92.16
2023-05-25T02:25:10.071Z,91.30
2023-05-25T02:35:12.693Z,90.86
2023-05-25T02:45:15.475Z,91.49
2023-05-25T02:55:18.947Z,90.95
2023-05-25T03:05:21.821Z,90.94
2023-05-25T03:15:24.926Z,92.06
2023-05-25T03:25:27.492Z,92.57
2023-05-25T03:35:30.976Z,91.29
2023-05-25T03:45:33.898Z,89.90
2023-05-25T03:55:36.660Z,89.49
2023-05-25T04:05:39.066Z,87.80
2023-05-25T04:15:41.620Z,84.30
2023-05-25T04:25:51.199Z,82.08
2023-05-25T04:35:54.468Z,81.60
2023-05-25T04:45:59.915Z,78.45
2023-05-25T04:56:04.748Z,75.08
2023-05-25T05:06:07.646Z,74.55
2023-05-25T05:16:10.378Z,73.21
2023-05-25T05:26:15.500Z,69.88
2023-05-25T05:36:20.620Z,68.19
2023-05-25T05:46:23.425Z,66.98
2023-05-25T05:56:27.060Z,69.27
2023-05-25T06:06:33.168Z,66.11
2023-05-25T06:16:36.829Z,63.64
2023-05-25T06:26:42.099Z,64.67
2023-05-25T06:36:47.783Z,61.92
2023-05-25T06:46:52.944Z,61.44
2023-05-25T06:56:56.906Z,60.28
2023-05-25T07:06:59.645Z,61.65
2023-05-25T07:17:02.420Z,58.57
2023-05-25T07:27:05.348Z,59.65
2023-05-25T07:37:09.669Z,58.65
2023-05-25T07:48:00.441Z,59.79
2023-05-25T07:58:09.700Z,58.31
2023-05-25T08:08:17.115Z,58.90
2023-05-25T08:18:26.238Z,59.60
2023-05-25T08:28:29.028Z,56.32
2023-05-25T08:38:35.607Z,53.42
2023-05-25T08:48:42.342Z,54.58
2023-05-25T08:59:09.534Z,52.97
2023-05-25T09:09:12.642Z,53.83
2023-05-25T09:19:16.941Z,52.43
2023-05-25T09:29:26.660Z,52.21
2023-05-25T09:39:30.586Z,52.52
2023-05-25T09:49:33.476Z,50.29
2023-05-25T09:59:36.578Z,49.88
2023-05-25T10:09:41.891Z,48.71
2023-05-25T10:20:08.695Z,48.38
2023-05-25T10:30:16.705Z,48.64
2023-05-25T10:40:25.133Z,48.69
2023-05-25T10:50:28.756Z,46.34
2023-05-25T11:00:33.460Z,49.11
2023-05-25T11:10:49.456Z,46.93
2023-05-25T11:21:42.978Z,45.18
2023-05-25T11:32:14.934Z,46.94
2023-05-25T11:42:20.086Z,47.24
2023-05-25T11:52:36.347Z,46.66
2023-05-25T12:02:42.017Z,43.63
2023-05-25T12:12:49.649Z,45.76
2023-05-25T12:22:55.691Z,47.89
2023-05-25T12:33:05.000Z,43.92
2023-05-25T12:43:19.155Z,46.08
2023-05-25T12:53:21.742Z,41.28
2023-05-25T13:03:26.594Z,44.89
2023-05-25T13:13:29.677Z,42.50
2023-05-25T13:23:37.179Z,41.02
2023-05-25T13:33:40.892Z,44.24
2023-05-25T13:43:43.813Z,45.71
2023-05-25T13:54:06.552Z,45.88
2023-05-25T14:04:29.061Z,41.47
2023-05-25T14:14:32.864Z,43.00
2023-05-25T14:24:35.920Z,43.12
2023-05-25T14:34:38.460Z,41.27
2023-05-25T14:44:41.233Z,42.07
2023-05-25T14:54:45.090Z,42.13
2023-05-25T15:04:47.835Z,44.74
2023-05-25T15:14:50.846Z,43.02
2023-05-25T15:24:53.951Z,44.92
2023-05-25T15:34:56.464Z,44.70
2023-05-25T15:44:59.120Z,45.45
2023-05-25T15:55:01.704Z,48.24
2023-05-25T16:05:07.128Z,49.00
2023-05-25T16:15:10.746Z,49.97
2023-05-25T16:25:13.337Z,51.08
2023-05-25T16:35:15.929Z,51.11
2023-05-25T16:45:20.665Z,54.56
2023-05-25T16:55:23.664Z,55.56
2023-05-25T17:05:26.160Z,54.59
2023-05-25T17:15:28.689Z,58.25
2023-05-25T17:25:33.357Z,58.93
2023-05-25T17:35:38.072Z,62.22
2023-05-25T17:45:40.879Z,63.42
2023-05-25T17:55:43.844Z,65.16
2023-05-25T18:05:46.814Z,65.20
2023-05-25T18:15:49.552Z,71.36
2023-05-25T18:25:52.778Z,68.82
2023-05-25T18:35:55.382Z,69.85
2023-05-25T18:45:57.945Z,76.81
2023-05-25T18:56:00.770Z,74.59
2023-05-25T19:06:03.888Z,76.60
2023-05-25T19:16:06.710Z,77.61
2023-05-25T19:26:09.282Z,76.38
2023-05-25T19:36:11.806Z,82.20
2023-05-25T19:46:14.897Z,80.61
2023-05-25T19:56:17.934Z,82.04
2023-05-25T20:06:20.601Z,83.28
2023-05-25T20:16:24.994Z,83.60
2023-05-25T20:26:27.913Z,82.25
2023-05-25T20:36:30.947Z,84.81
2023-05-25T20:46:34.106Z,88.54
2023-05-25T20:56:36.926Z,85.11
2023-05-25T21:06:39.813Z,85.72
2023-05-25T21:16:44.797Z,90.94
2023-05-25T21:26:47.439Z,88.84
2023-05-25T21:36:50.056Z,88.03
2023-05-25T21:46:52.828Z,89.44
2023-05-25T21:56:55.532Z,92.60
2023-05-25T22:06:58.240Z,89.56
2023-05-25T22:17:00.744Z,90.38
2023-05-25T22:27:03.354Z,92.78
2023-05-25T22:37:05.931Z,95.51
2023-05-25T22:47:08.535Z,94.02
2023-05-25T22:57:11.102Z,93.12
2023-05-25T23:07:13.760Z,98.04
2023-05-25T23:17:16.388Z,92.96
2023-05-25T23:27:18.942Z,92.23
2023-05-25T23:37:21.870Z,92.59
2023-05-25T23:47:24.593Z,90.54
2023-05-25T23:57:27.214Z,91.68
